CheckWX is a tool to help pilots better visualize weather data.  It is not intended as a substitute for an official pre-flight weather briefing.

19:02:29 UTC

CYQZ TAF
Quesnel Airport
Quesnel, Canada
TAF CYQZ 281138Z 2812/2824 VRB03KT P6SM SKC FM281600 02006KT P6SM BKN100 FM281900 04008KT P6SM SCT040 BKN070 TEMPO 2819/2824 P6SM -SHRA BKN040 OVC070 RMK FCST BASED ON AUTO OBS. NXT FCST BY 281900Z

May-28@
12:00 UTC

May-28 @ 12:00 UTC

May-28@
16:00 UTC

May-28 @ 16:00 UTC

TAF CYQZ 281138Z 2812/2824 VRB03KT P6SM SKC

Expired

Wind
  • Variable at 3 KTS
Cloud Levels
  • Clear skies

May-28@
16:00 UTC

May-28 @ 16:00 UTC

May-28@
19:00 UTC

May-28 @ 19:00 UTC

FM281600 02006KT P6SM BKN100

Expired

Wind
  • 020° at 6 KTS
Cloud Levels
  • Broken at 10,000' AGL

May-28@
19:00 UTC

May-28 @ 19:00 UTC

May-29@
00:00 UTC

May-29 @ 00:00 UTC

FM281900 04008KT P6SM SCT040 BKN070

From

From Standard forecast or significant change

Wind
  • 040° at 8 KTS
Cloud Levels
  • Scattered at 4,000' AGL
  • Broken at 7,000' AGL

May-28@
19:00 UTC

May-28 @ 19:00 UTC

May-29@
00:00 UTC

May-29 @ 00:00 UTC

TEMPO 2819/2824 P6SM -SHRA BKN040 OVC070 RMK FCST BASED ON AUTO OBS. NXT FCST BY 281900Z

Temporary

Temporary Changes expected for less than half the time period

Conditions
Light Showers, Rain
Cloud Levels
  • Broken at 4,000' AGL
  • Overcast at 7,000' AGL